Terminal Aerodrome Forecast
Issued by NWS Mt. Holly, NJ

Home | Current Version | Previous Version | Text Only | Print | Product List | Glossary On
Versions: 1 2 3 4 5 6 7 8 9 10 11 12 13 14 15 16 17 18 19 20 21 22 23 24 25 26 27 28 29 30 31 32 33 34 35 36 37 38 39 40 41 42 43 44
000
FTAK31 PANC 300537
TAFABE
TAF
PABE 300537Z 3006/0106 09008KT P6SM SCT050 BKN080
     FM300900 06007KT P6SM VCFG FEW008 SCT015 BKN030
     FM302100 07012KT P6SM BKN080
     FM010000 07014G24KT P6SM VCSH SCT050 BKN080=

USA.gov is the U.S. government's official web portal to all federal, state and local government web resources and services.